createdAt,value
2022-08-26T00:00:21.000Z,92.01
2022-08-26T00:01:21.000Z,92.31
2022-08-26T00:02:21.000Z,92.51
2022-08-26T00:03:21.000Z,92.41
2022-08-26T00:04:21.000Z,92.11
2022-08-26T00:05:21.000Z,92.15
2022-08-26T00:06:21.000Z,92.05
2022-08-26T00:07:21.000Z,92.46
2022-08-26T00:07:21.000Z,92.46
2022-08-26T00:08:21.000Z,92.25
2022-08-26T00:08:21.000Z,92.25
2022-08-26T00:09:21.000Z,92.55
2022-08-26T00:09:21.000Z,92.55
2022-08-26T00:10:21.000Z,92.66
2022-08-26T00:10:21.000Z,92.66
2022-08-26T00:11:21.000Z,92.96
2022-08-26T00:11:21.000Z,92.96
2022-08-26T00:12:21.000Z,93.05
2022-08-26T00:13:21.000Z,93.26
2022-08-26T00:14:21.000Z,93.46
2022-08-26T00:15:21.000Z,93.36
2022-08-26T00:16:21.000Z,93.50
2022-08-26T00:17:21.000Z,93.36
2022-08-26T00:18:21.000Z,93.60
2022-08-26T00:19:21.000Z,93.60
2022-08-26T00:20:21.000Z,93.60
2022-08-26T00:21:21.000Z,93.60
2022-08-26T00:22:21.000Z,93.70
2022-08-26T00:23:21.000Z,93.70
2022-08-26T00:24:21.000Z,93.70
2022-08-26T00:25:21.000Z,93.90
2022-08-26T00:26:21.000Z,93.90
2022-08-26T00:27:21.000Z,93.90
2022-08-26T00:28:21.000Z,94.00
2022-08-26T00:29:21.000Z,94.10
2022-08-26T00:30:21.000Z,94.10
2022-08-26T00:31:21.000Z,94.31
2022-08-26T00:32:21.000Z,94.31
2022-08-26T00:33:21.000Z,94.31
2022-08-26T00:34:21.000Z,94.20
2022-08-26T00:35:21.000Z,94.20
2022-08-26T00:36:21.000Z,94.20
2022-08-26T00:37:21.000Z,94.20
2022-08-26T00:38:21.000Z,94.20
2022-08-26T00:39:21.000Z,94.20
2022-08-26T00:40:21.000Z,94.10
2022-08-26T00:41:21.000Z,94.10
2022-08-26T00:42:21.000Z,94.20
2022-08-26T00:43:21.000Z,94.40
2022-08-26T00:44:21.000Z,94.31
2022-08-26T00:45:21.000Z,94.40
2022-08-26T00:46:21.000Z,94.51
2022-08-26T00:47:21.000Z,94.40
2022-08-26T00:48:21.000Z,94.51
2022-08-26T00:49:21.000Z,94.60
2022-08-26T00:50:21.000Z,94.51
2022-08-26T00:51:21.000Z,94.60
2022-08-26T00:52:21.000Z,94.60
2022-08-26T00:53:21.000Z,94.75
2022-08-26T00:54:21.000Z,94.95
2022-08-26T00:55:21.000Z,95.25
2022-08-26T00:56:20.000Z,95.36
2022-08-26T00:57:20.000Z,95.36
2022-08-26T00:58:20.000Z,95.36
2022-08-26T00:59:20.000Z,95.25
2022-08-26T01:00:20.000Z,95.05
2022-08-26T01:01:20.000Z,94.95
2022-08-26T01:02:20.000Z,95.05
2022-08-26T01:03:20.000Z,94.85
2022-08-26T01:04:20.000Z,95.05
2022-08-26T01:05:20.000Z,95.36
2022-08-26T01:06:20.000Z,95.55
2022-08-26T01:07:20.000Z,95.75
2022-08-26T01:08:20.000Z,95.65
2022-08-26T01:09:20.000Z,95.65
2022-08-26T01:10:20.000Z,95.55
2022-08-26T01:11:20.000Z,95.65
2022-08-26T01:12:20.000Z,95.65
2022-08-26T01:13:20.000Z,95.65
2022-08-26T01:14:20.000Z,95.70
2022-08-26T01:15:20.000Z,95.80
2022-08-26T01:16:20.000Z,95.60
2022-08-26T01:17:20.000Z,95.70
2022-08-26T01:18:20.000Z,95.80
2022-08-26T01:19:20.000Z,95.80
2022-08-26T01:20:20.000Z,96.10
2022-08-26T01:21:20.000Z,96.30
2022-08-26T01:22:20.000Z,96.50
2022-08-26T01:23:20.000Z,96.50
2022-08-26T01:24:20.000Z,96.50
2022-08-26T01:25:20.000Z,96.50
2022-08-26T01:26:20.000Z,96.36
2022-08-26T01:27:20.000Z,96.20
2022-08-26T01:28:20.000Z,96.10
2022-08-26T01:29:20.000Z,96.10
2022-08-26T01:30:20.000Z,95.95
2022-08-26T01:31:20.000Z,95.95
2022-08-26T01:32:20.000Z,95.86
2022-08-26T01:33:20.000Z,95.75
2022-08-26T01:34:20.000Z,95.80
2022-08-26T01:35:20.000Z,95.80
2022-08-26T01:36:20.000Z,95.95
2022-08-26T01:37:20.000Z,96.10
2022-08-26T01:38:20.000Z,96.20
2022-08-26T01:39:20.000Z,96.20
2022-08-26T01:40:20.000Z,96.10
2022-08-26T01:41:20.000Z,96.20
2022-08-26T01:42:20.000Z,96.20
2022-08-26T01:43:20.000Z,96.20
2022-08-26T01:44:20.000Z,96.20
2022-08-26T01:45:20.000Z,96.06
2022-08-26T01:46:20.000Z,95.95
2022-08-26T01:47:20.000Z,95.95
2022-08-26T01:48:20.000Z,95.95
2022-08-26T01:49:20.000Z,95.95
2022-08-26T01:50:20.000Z,95.86
2022-08-26T01:51:20.000Z,95.95
2022-08-26T01:52:20.000Z,95.86
2022-08-26T01:53:20.000Z,95.86
2022-08-26T01:54:20.000Z,95.86
2022-08-26T01:55:20.000Z,95.90
2022-08-26T01:56:20.000Z,95.80
2022-08-26T01:57:20.000Z,95.60
2022-08-26T01:58:20.000Z,95.40
2022-08-26T01:59:20.000Z,95.30
2022-08-26T02:00:20.000Z,95.20
2022-08-26T02:01:20.000Z,95.20
2022-08-26T02:02:20.000Z,95.40
2022-08-26T02:03:20.000Z,95.80
2022-08-26T02:04:20.000Z,96.00
2022-08-26T02:05:20.000Z,96.30
2022-08-26T02:06:20.000Z,96.41
2022-08-26T02:07:20.000Z,96.60
2022-08-26T02:08:19.000Z,96.70
2022-08-26T02:09:19.000Z,96.70
2022-08-26T02:10:19.000Z,96.60
2022-08-26T02:11:19.000Z,96.91
2022-08-26T02:12:19.000Z,96.80
2022-08-26T02:13:19.000Z,96.80
2022-08-26T02:14:19.000Z,97.00
2022-08-26T02:15:19.000Z,96.91
2022-08-26T02:16:19.000Z,96.91
2022-08-26T02:17:19.000Z,97.00
2022-08-26T02:18:19.000Z,96.80
2022-08-26T02:19:19.000Z,96.50
2022-08-26T02:20:19.000Z,96.60
2022-08-26T02:21:19.000Z,96.65
2022-08-26T02:22:19.000Z,96.45
2022-08-26T02:23:19.000Z,96.95
2022-08-26T02:24:19.000Z,97.05
2022-08-26T02:25:19.000Z,97.15
2022-08-26T02:26:19.000Z,97.05
2022-08-26T02:27:19.000Z,97.15
2022-08-26T02:28:19.000Z,97.35
2022-08-26T02:29:19.000Z,97.45
2022-08-26T02:30:19.000Z,97.45
2022-08-26T02:31:19.000Z,97.75
2022-08-26T02:32:19.000Z,97.55
2022-08-26T02:33:19.000Z,97.15
2022-08-26T02:34:19.000Z,97.05
2022-08-26T02:35:19.000Z,96.85
2022-08-26T02:36:19.000Z,96.85
2022-08-26T02:37:19.000Z,96.95
2022-08-26T02:38:19.000Z,97.25
2022-08-26T02:39:19.000Z,97.75
2022-08-26T02:40:19.000Z,97.85
2022-08-26T02:41:19.000Z,97.75
2022-08-26T02:42:19.000Z,97.66
2022-08-26T02:43:19.000Z,97.55
2022-08-26T02:44:19.000Z,97.45
2022-08-26T02:45:19.000Z,97.75
2022-08-26T02:46:19.000Z,98.16
2022-08-26T02:47:19.000Z,98.16
2022-08-26T02:48:19.000Z,98.46
2022-08-26T02:49:19.000Z,98.36
2022-08-26T02:50:19.000Z,98.25
2022-08-26T02:51:19.000Z,98.25
2022-08-26T02:52:19.000Z,98.05
2022-08-26T02:53:19.000Z,98.16
2022-08-26T02:54:19.000Z,98.05
2022-08-26T02:55:19.000Z,98.05
2022-08-26T02:56:19.000Z,98.16
2022-08-26T02:57:19.000Z,98.36
2022-08-26T02:58:19.000Z,98.36
2022-08-26T02:59:19.000Z,98.36
2022-08-26T03:00:19.000Z,98.25
2022-08-26T03:01:19.000Z,98.16
2022-08-26T03:02:19.000Z,98.05
2022-08-26T03:03:19.000Z,98.05
2022-08-26T03:04:19.000Z,97.96
2022-08-26T03:05:19.000Z,98.16
2022-08-26T03:06:19.000Z,98.16
2022-08-26T03:07:19.000Z,98.25
2022-08-26T03:08:19.000Z,97.96
2022-08-26T03:09:19.000Z,98.25
2022-08-26T03:10:19.000Z,98.36
2022-08-26T03:11:19.000Z,98.25
2022-08-26T03:12:19.000Z,98.25
2022-08-26T03:13:19.000Z,98.46
2022-08-26T03:14:19.000Z,98.56
2022-08-26T03:15:19.000Z,98.66
2022-08-26T03:16:19.000Z,98.66
2022-08-26T03:17:19.000Z,98.56
2022-08-26T03:18:19.000Z,98.56
2022-08-26T03:19:19.000Z,98.56
2022-08-26T03:20:18.000Z,98.56
2022-08-26T03:21:18.000Z,98.46
2022-08-26T03:22:18.000Z,98.46
2022-08-26T03:23:18.000Z,98.46
2022-08-26T03:24:18.000Z,98.66
2022-08-26T03:25:18.000Z,98.46
2022-08-26T03:26:18.000Z,98.46
2022-08-26T03:27:18.000Z,98.25
2022-08-26T03:28:18.000Z,98.16
2022-08-26T03:29:18.000Z,97.96
2022-08-26T03:30:18.000Z,97.96
2022-08-26T03:31:18.000Z,98.16
2022-08-26T03:32:18.000Z,97.96
2022-08-26T03:33:18.000Z,98.05
2022-08-26T03:34:18.000Z,98.36
2022-08-26T03:35:18.000Z,98.36
2022-08-26T03:36:18.000Z,98.30
2022-08-26T03:37:18.000Z,98.36
2022-08-26T03:38:18.000Z,98.46
2022-08-26T03:39:18.000Z,98.60
2022-08-26T03:40:18.000Z,98.80
2022-08-26T03:41:18.000Z,98.80
2022-08-26T03:42:18.000Z,98.80
2022-08-26T03:43:18.000Z,98.80
2022-08-26T03:44:18.000Z,98.80
2022-08-26T03:45:18.000Z,98.80
2022-08-26T03:46:18.000Z,98.91
2022-08-26T03:47:18.000Z,98.80
2022-08-26T03:48:18.000Z,98.91
2022-08-26T03:49:18.000Z,98.91
2022-08-26T03:50:18.000Z,98.91
2022-08-26T03:51:18.000Z,98.71
2022-08-26T03:52:18.000Z,98.91
2022-08-26T03:53:18.000Z,99.11
2022-08-26T03:54:18.000Z,99.11
2022-08-26T03:55:18.000Z,99.46
2022-08-26T03:56:18.000Z,99.35
2022-08-26T03:57:18.000Z,99.21
2022-08-26T03:58:18.000Z,99.46
2022-08-26T03:59:18.000Z,99.66
2022-08-26T04:00:18.000Z,99.46
2022-08-26T04:01:18.000Z,99.76
2022-08-26T04:02:18.000Z,99.76
2022-08-26T04:03:18.000Z,99.96
2022-08-26T04:04:18.000Z,99.99
2022-08-26T04:05:18.000Z,99.99
2022-08-26T04:06:18.000Z,99.99
2022-08-26T04:07:25.000Z,99.99
2022-08-26T04:08:18.000Z,99.99
2022-08-26T04:09:18.000Z,99.99
2022-08-26T04:10:18.000Z,99.99
2022-08-26T04:11:18.000Z,99.99
2022-08-26T04:12:18.000Z,99.99
2022-08-26T04:13:18.000Z,99.99
2022-08-26T04:14:18.000Z,99.99
2022-08-26T04:15:18.000Z,99.99
2022-08-26T04:16:18.000Z,99.99
2022-08-26T04:17:18.000Z,99.99
2022-08-26T04:18:18.000Z,99.99
2022-08-26T04:19:18.000Z,99.99
2022-08-26T04:20:18.000Z,99.99
2022-08-26T04:21:18.000Z,99.99
2022-08-26T04:22:18.000Z,99.99
2022-08-26T04:23:18.000Z,99.99
2022-08-26T04:24:18.000Z,99.99
2022-08-26T04:25:18.000Z,99.99
2022-08-26T04:26:18.000Z,99.99
2022-08-26T04:27:18.000Z,99.99
2022-08-26T04:28:18.000Z,99.99
2022-08-26T04:29:18.000Z,99.99
2022-08-26T04:30:18.000Z,99.99
2022-08-26T04:31:18.000Z,99.99
2022-08-26T04:32:17.000Z,99.99
2022-08-26T04:33:17.000Z,99.99
2022-08-26T04:34:17.000Z,99.99
2022-08-26T04:35:17.000Z,99.99
2022-08-26T04:36:17.000Z,99.99
2022-08-26T04:37:17.000Z,99.99
2022-08-26T04:38:17.000Z,99.99
2022-08-26T04:39:17.000Z,99.99
2022-08-26T04:40:17.000Z,99.99
2022-08-26T04:41:17.000Z,99.99
2022-08-26T04:42:17.000Z,99.99
2022-08-26T04:42:17.000Z,99.99
2022-08-26T04:43:17.000Z,99.99
2022-08-26T04:43:17.000Z,99.99
2022-08-26T04:44:17.000Z,99.99
2022-08-26T04:44:17.000Z,99.99
2022-08-26T04:45:17.000Z,99.99
2022-08-26T04:45:17.000Z,99.99
2022-08-26T04:46:17.000Z,99.99
2022-08-26T04:46:17.000Z,99.99
2022-08-26T04:47:17.000Z,99.99
2022-08-26T04:48:17.000Z,99.99
2022-08-26T04:49:17.000Z,99.99
2022-08-26T04:50:17.000Z,99.99
2022-08-26T04:51:17.000Z,99.99
2022-08-26T04:52:17.000Z,99.99
2022-08-26T04:53:17.000Z,99.99
2022-08-26T04:54:17.000Z,99.99
2022-08-26T04:55:17.000Z,99.99
2022-08-26T04:56:17.000Z,99.99
2022-08-26T04:57:17.000Z,99.99
2022-08-26T04:58:17.000Z,99.99
2022-08-26T04:59:17.000Z,99.99
2022-08-26T05:00:17.000Z,99.99
2022-08-26T05:01:17.000Z,99.99
2022-08-26T05:02:17.000Z,99.99
2022-08-26T05:03:17.000Z,99.99
2022-08-26T05:04:17.000Z,99.99
2022-08-26T05:05:17.000Z,99.99
2022-08-26T05:06:17.000Z,99.99
2022-08-26T05:07:17.000Z,99.99
2022-08-26T05:08:17.000Z,99.99
2022-08-26T05:09:17.000Z,99.99
2022-08-26T05:10:17.000Z,99.99
2022-08-26T05:11:17.000Z,99.99
2022-08-26T05:12:17.000Z,99.99
2022-08-26T05:13:17.000Z,99.99
2022-08-26T05:14:17.000Z,99.99
2022-08-26T05:15:17.000Z,99.99
2022-08-26T05:16:17.000Z,99.99
2022-08-26T05:17:17.000Z,99.99
2022-08-26T05:18:17.000Z,99.99
2022-08-26T05:19:17.000Z,99.99
2022-08-26T05:20:17.000Z,99.99
2022-08-26T05:21:17.000Z,99.82
2022-08-26T05:22:17.000Z,99.71
2022-08-26T05:23:17.000Z,99.47
2022-08-26T05:24:17.000Z,99.37
2022-08-26T05:25:17.000Z,99.07
2022-08-26T05:26:17.000Z,99.07
2022-08-26T05:27:17.000Z,98.97
2022-08-26T05:28:17.000Z,98.62
2022-08-26T05:29:17.000Z,98.52
2022-08-26T05:30:17.000Z,98.32
2022-08-26T05:31:17.000Z,98.22
2022-08-26T05:32:17.000Z,97.92
2022-08-26T05:33:17.000Z,97.61
2022-08-26T05:34:17.000Z,97.37
2022-08-26T05:35:17.000Z,96.87
2022-08-26T05:36:17.000Z,96.67
2022-08-26T05:37:17.000Z,96.47
2022-08-26T05:38:17.000Z,96.26
2022-08-26T05:39:17.000Z,96.26
2022-08-26T05:40:17.000Z,96.02
2022-08-26T05:41:17.000Z,96.02
2022-08-26T05:42:17.000Z,95.92
2022-08-26T05:43:17.000Z,95.72
2022-08-26T05:44:16.000Z,95.62
2022-08-26T05:45:16.000Z,95.72
2022-08-26T05:46:16.000Z,95.32
2022-08-26T05:47:16.000Z,95.42
2022-08-26T05:48:16.000Z,95.52
2022-08-26T05:49:16.000Z,95.52
2022-08-26T05:50:16.000Z,95.42
2022-08-26T05:51:16.000Z,95.17
2022-08-26T05:52:16.000Z,95.27
2022-08-26T05:53:16.000Z,95.27
2022-08-26T05:54:16.000Z,95.37
2022-08-26T05:55:16.000Z,95.12
2022-08-26T05:56:16.000Z,94.73
2022-08-26T05:57:16.000Z,94.23
2022-08-26T05:58:16.000Z,94.02
2022-08-26T05:59:16.000Z,93.82
2022-08-26T06:00:16.000Z,93.88
2022-08-26T06:01:16.000Z,93.68
2022-08-26T06:02:16.000Z,93.48
2022-08-26T06:03:16.000Z,93.18
2022-08-26T06:04:16.000Z,92.88
2022-08-26T06:05:16.000Z,92.68
2022-08-26T06:06:16.000Z,92.63
2022-08-26T06:07:16.000Z,92.74
2022-08-26T06:08:16.000Z,92.63
2022-08-26T06:09:16.000Z,92.13
2022-08-26T06:10:16.000Z,92.03
2022-08-26T06:11:16.000Z,91.99
2022-08-26T06:12:16.000Z,91.29
2022-08-26T06:13:16.000Z,91.69
2022-08-26T06:14:16.000Z,91.69
2022-08-26T06:15:16.000Z,91.89
2022-08-26T06:16:16.000Z,91.45
2022-08-26T06:17:16.000Z,91.25
2022-08-26T06:18:16.000Z,91.35
2022-08-26T06:19:16.000Z,91.25
2022-08-26T06:20:16.000Z,90.91
2022-08-26T06:21:16.000Z,90.30
2022-08-26T06:22:16.000Z,90.11
2022-08-26T06:22:16.000Z,90.11
2022-08-26T06:23:16.000Z,89.51
2022-08-26T06:23:16.000Z,89.51
2022-08-26T06:24:16.000Z,89.40
2022-08-26T06:24:16.000Z,89.40
2022-08-26T06:25:16.000Z,89.01
2022-08-26T06:25:16.000Z,89.01
2022-08-26T06:26:16.000Z,89.11
2022-08-26T06:26:16.000Z,89.11
2022-08-26T06:27:16.000Z,89.40
2022-08-26T06:28:16.000Z,89.31
2022-08-26T06:29:16.000Z,89.26
2022-08-26T06:30:16.000Z,89.16
2022-08-26T06:31:16.000Z,89.16
2022-08-26T06:32:16.000Z,89.06
2022-08-26T06:33:16.000Z,89.06
2022-08-26T06:34:16.000Z,89.36
2022-08-26T06:35:16.000Z,89.56
2022-08-26T06:36:16.000Z,89.47
2022-08-26T06:37:16.000Z,89.66
2022-08-26T06:38:16.000Z,88.96
2022-08-26T06:39:16.000Z,88.76
2022-08-26T06:40:16.000Z,88.56
2022-08-26T06:41:16.000Z,88.67
2022-08-26T06:42:16.000Z,88.26
2022-08-26T06:43:16.000Z,88.26
2022-08-26T06:44:16.000Z,88.56
2022-08-26T06:45:16.000Z,88.52
2022-08-26T06:46:16.000Z,88.52
2022-08-26T06:47:16.000Z,88.02
2022-08-26T06:48:16.000Z,87.92
2022-08-26T06:49:16.000Z,88.02
2022-08-26T06:50:16.000Z,88.26
2022-08-26T06:51:16.000Z,88.12
2022-08-26T06:52:16.000Z,87.92
2022-08-26T06:53:16.000Z,87.73
2022-08-26T06:54:16.000Z,88.02
2022-08-26T06:55:16.000Z,87.82
2022-08-26T06:56:15.000Z,88.02
2022-08-26T06:57:15.000Z,87.92
2022-08-26T06:58:15.000Z,87.92
2022-08-26T06:59:15.000Z,87.92
2022-08-26T07:00:15.000Z,87.92
2022-08-26T07:01:15.000Z,87.73
2022-08-26T07:02:15.000Z,87.42
2022-08-26T07:03:15.000Z,87.42
2022-08-26T07:04:15.000Z,87.82
2022-08-26T07:05:15.000Z,87.73
2022-08-26T07:06:15.000Z,88.32
2022-08-26T07:07:15.000Z,87.82
2022-08-26T07:08:15.000Z,87.73
2022-08-26T07:09:15.000Z,88.02
2022-08-26T07:10:15.000Z,88.22
2022-08-26T07:11:15.000Z,88.28
2022-08-26T07:12:15.000Z,87.98
2022-08-26T07:13:15.000Z,87.98
2022-08-26T07:14:15.000Z,88.08
2022-08-26T07:15:15.000Z,87.98
2022-08-26T07:16:15.000Z,87.68
2022-08-26T07:17:15.000Z,87.44
2022-08-26T07:18:15.000Z,87.64
2022-08-26T07:19:15.000Z,87.14
2022-08-26T07:20:15.000Z,86.94
2022-08-26T07:21:15.000Z,86.70
2022-08-26T07:22:15.000Z,86.90
2022-08-26T07:23:15.000Z,86.50
2022-08-26T07:24:15.000Z,85.50
2022-08-26T07:25:15.000Z,84.86
2022-08-26T07:26:15.000Z,84.70
2022-08-26T07:27:15.000Z,85.27
2022-08-26T07:28:15.000Z,85.36
2022-08-26T07:29:15.000Z,85.76
2022-08-26T07:30:15.000Z,84.86
2022-08-26T07:31:15.000Z,83.93
2022-08-26T07:32:15.000Z,83.83
2022-08-26T07:33:15.000Z,83.83
2022-08-26T07:34:15.000Z,83.53
2022-08-26T07:35:15.000Z,83.09
2022-08-26T07:36:15.000Z,83.29
2022-08-26T07:37:15.000Z,83.09
2022-08-26T07:38:15.000Z,83.49
2022-08-26T07:39:15.000Z,82.56
2022-08-26T07:40:15.000Z,82.65
2022-08-26T07:41:15.000Z,81.82
2022-08-26T07:42:15.000Z,81.72
2022-08-26T07:43:15.000Z,81.32
2022-08-26T07:44:15.000Z,80.63
2022-08-26T07:45:15.000Z,81.12
2022-08-26T07:46:15.000Z,81.02
2022-08-26T07:47:15.000Z,80.69
2022-08-26T07:48:15.000Z,80.88
2022-08-26T07:49:15.000Z,80.69
2022-08-26T07:50:15.000Z,80.79
2022-08-26T07:51:15.000Z,80.25
2022-08-26T07:52:15.000Z,80.85
2022-08-26T07:53:15.000Z,80.45
2022-08-26T07:54:14.000Z,80.02
2022-08-26T07:55:14.000Z,79.72
2022-08-26T07:56:14.000Z,80.41
2022-08-26T07:57:14.000Z,80.31
2022-08-26T07:58:14.000Z,79.72
2022-08-26T07:59:14.000Z,78.69
2022-08-26T08:00:14.000Z,79.08
2022-08-26T08:01:14.000Z,78.85
2022-08-26T08:02:14.000Z,77.62
2022-08-26T08:02:14.000Z,77.62
2022-08-26T08:03:14.000Z,77.48
2022-08-26T08:03:14.000Z,77.48
2022-08-26T08:04:14.000Z,74.97
2022-08-26T08:04:14.000Z,74.97
2022-08-26T08:05:14.000Z,74.44
2022-08-26T08:05:14.000Z,74.44
2022-08-26T08:06:14.000Z,73.41
2022-08-26T08:06:14.000Z,73.41
2022-08-26T08:07:14.000Z,72.29
2022-08-26T08:08:14.000Z,70.97
2022-08-26T08:09:14.000Z,70.44
2022-08-26T08:10:14.000Z,70.80
2022-08-26T08:11:14.000Z,68.99
2022-08-26T08:12:14.000Z,68.17
2022-08-26T08:13:14.000Z,68.13
2022-08-26T08:14:14.000Z,66.82
2022-08-26T08:15:14.000Z,66.30
2022-08-26T08:16:14.000Z,66.27
2022-08-26T08:17:14.000Z,65.38
2022-08-26T08:18:14.000Z,65.77
2022-08-26T08:19:14.000Z,67.44
2022-08-26T08:20:14.000Z,65.91
2022-08-26T08:21:14.000Z,65.61
2022-08-26T08:22:14.000Z,65.91
2022-08-26T08:23:14.000Z,66.39
2022-08-26T08:24:14.000Z,65.41
2022-08-26T08:25:14.000Z,65.11
2022-08-26T08:26:14.000Z,65.34
2022-08-26T08:27:14.000Z,66.92
2022-08-26T08:28:14.000Z,66.30
2022-08-26T08:29:14.000Z,66.03
2022-08-26T08:30:14.000Z,66.23
2022-08-26T08:31:14.000Z,66.66
2022-08-26T08:32:14.000Z,68.17
2022-08-26T08:33:14.000Z,68.57
2022-08-26T08:34:14.000Z,68.99
2022-08-26T08:35:14.000Z,69.19
2022-08-26T08:36:14.000Z,69.49
2022-08-26T08:37:14.000Z,68.43
2022-08-26T08:38:14.000Z,69.06
2022-08-26T08:39:14.000Z,69.45
2022-08-26T08:40:14.000Z,70.15
2022-08-26T08:41:14.000Z,70.31
2022-08-26T08:42:14.000Z,69.62
2022-08-26T08:43:14.000Z,68.89
2022-08-26T08:44:14.000Z,67.94
2022-08-26T08:45:14.000Z,67.71
2022-08-26T08:46:14.000Z,65.38
2022-08-26T08:47:14.000Z,64.07
2022-08-26T08:48:14.000Z,63.15
2022-08-26T08:49:14.000Z,62.73
2022-08-26T08:50:14.000Z,62.34
2022-08-26T08:51:14.000Z,63.32
2022-08-26T08:52:14.000Z,62.11
2022-08-26T08:53:14.000Z,63.16
2022-08-26T08:54:14.000Z,62.27
2022-08-26T08:55:14.000Z,60.68
2022-08-26T08:56:14.000Z,60.74
2022-08-26T08:57:14.000Z,60.15
2022-08-26T08:58:14.000Z,60.15
2022-08-26T08:59:14.000Z,61.07
2022-08-26T09:00:14.000Z,61.19
2022-08-26T09:01:14.000Z,60.97
2022-08-26T09:02:14.000Z,60.28
2022-08-26T09:03:14.000Z,60.18
2022-08-26T09:04:14.000Z,59.95
2022-08-26T09:05:14.000Z,60.05
2022-08-26T09:06:13.000Z,59.14
2022-08-26T09:07:13.000Z,58.45
2022-08-26T09:07:13.000Z,58.45
2022-08-26T09:08:13.000Z,59.14
2022-08-26T09:08:13.000Z,59.14
2022-08-26T09:09:13.000Z,59.53
2022-08-26T09:09:13.000Z,59.53
2022-08-26T09:10:13.000Z,58.26
2022-08-26T09:10:13.000Z,58.26
2022-08-26T09:11:13.000Z,58.75
2022-08-26T09:11:13.000Z,58.75
2022-08-26T09:12:13.000Z,59.24
2022-08-26T09:13:13.000Z,59.24
2022-08-26T09:14:13.000Z,58.75
2022-08-26T09:15:13.000Z,59.14
2022-08-26T09:16:13.000Z,59.01
2022-08-26T09:17:13.000Z,57.25
2022-08-26T09:18:13.000Z,58.14
2022-08-26T09:19:13.000Z,58.11
2022-08-26T09:20:13.000Z,58.33
2022-08-26T09:21:13.000Z,58.53
2022-08-26T09:22:13.000Z,58.53
2022-08-26T09:23:13.000Z,58.47
2022-08-26T09:24:13.000Z,57.26
2022-08-26T09:25:13.000Z,56.97
2022-08-26T09:26:13.000Z,56.26
2022-08-26T09:27:13.000Z,55.47
2022-08-26T09:28:13.000Z,55.26
2022-08-26T09:29:13.000Z,55.16
2022-08-26T09:30:13.000Z,55.87
2022-08-26T09:31:13.000Z,56.31
2022-08-26T09:32:13.000Z,57.10
2022-08-26T09:33:13.000Z,56.21
2022-08-26T09:34:13.000Z,56.02
2022-08-26T09:35:13.000Z,56.38
2022-08-26T09:36:13.000Z,56.09
2022-08-26T09:37:13.000Z,55.90
2022-08-26T09:38:13.000Z,55.87
2022-08-26T09:39:13.000Z,56.33
2022-08-26T09:40:13.000Z,56.13
2022-08-26T09:41:13.000Z,53.96
2022-08-26T09:42:13.000Z,53.76
2022-08-26T09:43:13.000Z,53.88
2022-08-26T09:44:13.000Z,55.45
2022-08-26T09:45:13.000Z,54.28
2022-08-26T09:46:13.000Z,54.82
2022-08-26T09:47:13.000Z,54.62
2022-08-26T09:48:13.000Z,55.21
2022-08-26T09:49:13.000Z,57.10
2022-08-26T09:50:13.000Z,55.26
2022-08-26T09:51:13.000Z,57.06
2022-08-26T09:52:13.000Z,57.45
2022-08-26T09:53:13.000Z,56.98
2022-08-26T09:54:13.000Z,56.40
2022-08-26T09:55:13.000Z,56.01
2022-08-26T09:56:13.000Z,55.98
2022-08-26T09:57:13.000Z,56.17
2022-08-26T09:58:13.000Z,55.85
2022-08-26T09:59:13.000Z,55.26
2022-08-26T10:00:13.000Z,55.16
2022-08-26T10:01:13.000Z,56.05
2022-08-26T10:02:13.000Z,55.76
2022-08-26T10:03:13.000Z,55.24
2022-08-26T10:04:13.000Z,54.06
2022-08-26T10:05:13.000Z,55.66
2022-08-26T10:06:13.000Z,56.24
2022-08-26T10:07:13.000Z,54.55
2022-08-26T10:08:13.000Z,54.25
2022-08-26T10:09:13.000Z,53.84
2022-08-26T10:10:13.000Z,54.13
2022-08-26T10:11:13.000Z,55.01
2022-08-26T10:12:13.000Z,54.30
2022-08-26T10:13:13.000Z,54.79
2022-08-26T10:14:13.000Z,53.20
2022-08-26T10:15:13.000Z,53.00
2022-08-26T10:16:13.000Z,53.42
2022-08-26T10:17:13.000Z,54.43
2022-08-26T10:18:13.000Z,54.65
2022-08-26T10:19:13.000Z,55.58
2022-08-26T10:20:12.000Z,57.11
2022-08-26T10:21:12.000Z,58.00
2022-08-26T10:22:12.000Z,58.45
2022-08-26T10:23:12.000Z,57.87
2022-08-26T10:24:12.000Z,56.98
2022-08-26T10:25:12.000Z,55.29
2022-08-26T10:26:12.000Z,54.87
2022-08-26T10:27:12.000Z,54.94
2022-08-26T10:28:12.000Z,54.52
2022-08-26T10:29:12.000Z,53.94
2022-08-26T10:30:12.000Z,53.94
2022-08-26T10:31:12.000Z,53.57
2022-08-26T10:32:12.000Z,53.16
2022-08-26T10:33:12.000Z,54.91
2022-08-26T10:34:12.000Z,53.45
2022-08-26T10:35:12.000Z,52.73
2022-08-26T10:36:12.000Z,50.95
2022-08-26T10:37:12.000Z,50.76
2022-08-26T10:38:12.000Z,51.83
2022-08-26T10:39:12.000Z,52.03
2022-08-26T10:40:12.000Z,51.95
2022-08-26T10:41:12.000Z,52.25
2022-08-26T10:42:12.000Z,52.54
2022-08-26T10:43:12.000Z,51.56
2022-08-26T10:44:12.000Z,52.03
2022-08-26T10:45:12.000Z,51.25
2022-08-26T10:46:12.000Z,50.63
2022-08-26T10:47:12.000Z,49.92
2022-08-26T10:48:12.000Z,50.78
2022-08-26T10:49:12.000Z,49.02
2022-08-26T10:50:12.000Z,51.46
2022-08-26T10:51:12.000Z,51.24
2022-08-26T10:52:12.000Z,48.49
2022-08-26T10:53:12.000Z,48.78
2022-08-26T10:54:12.000Z,48.39
2022-08-26T10:55:12.000Z,48.29
2022-08-26T10:56:12.000Z,47.88
2022-08-26T10:57:12.000Z,48.27
2022-08-26T10:58:12.000Z,48.05
2022-08-26T10:59:12.000Z,46.95
2022-08-26T11:00:12.000Z,47.05
2022-08-26T11:01:12.000Z,46.49
2022-08-26T11:02:12.000Z,47.07
2022-08-26T11:03:12.000Z,47.49
2022-08-26T11:04:12.000Z,48.14
2022-08-26T11:05:12.000Z,48.05
2022-08-26T11:06:12.000Z,48.27
2022-08-26T11:07:12.000Z,46.80
2022-08-26T11:08:12.000Z,47.36
2022-08-26T11:09:12.000Z,47.27
2022-08-26T11:10:12.000Z,47.27
2022-08-26T11:11:12.000Z,47.63
2022-08-26T11:12:12.000Z,47.34
2022-08-26T11:13:12.000Z,46.37
2022-08-26T11:14:12.000Z,47.73
2022-08-26T11:15:12.000Z,47.34
2022-08-26T11:16:12.000Z,45.86
2022-08-26T11:17:12.000Z,46.37
2022-08-26T11:18:12.000Z,47.53
2022-08-26T11:19:12.000Z,45.90
2022-08-26T11:20:12.000Z,46.41
2022-08-26T11:21:12.000Z,47.05
2022-08-26T11:22:12.000Z,47.87
2022-08-26T11:23:12.000Z,48.87
2022-08-26T11:24:12.000Z,50.17
2022-08-26T11:25:11.000Z,50.39
2022-08-26T11:26:11.000Z,50.02
2022-08-26T11:27:11.000Z,50.90
2022-08-26T11:28:11.000Z,50.93
2022-08-26T11:29:11.000Z,50.85
2022-08-26T11:30:11.000Z,50.54
2022-08-26T11:31:11.000Z,50.61
2022-08-26T11:32:11.000Z,49.99
2022-08-26T11:33:11.000Z,49.09
2022-08-26T11:34:11.000Z,49.53
2022-08-26T11:35:11.000Z,49.90
2022-08-26T11:36:11.000Z,48.51
2022-08-26T11:37:11.000Z,46.92
2022-08-26T11:38:11.000Z,45.65
2022-08-26T11:39:11.000Z,46.95
2022-08-26T11:40:11.000Z,48.12
2022-08-26T11:41:11.000Z,46.36
2022-08-26T11:42:11.000Z,46.58
2022-08-26T11:43:11.000Z,48.44
2022-08-26T11:44:11.000Z,48.24
2022-08-26T11:45:11.000Z,49.12
2022-08-26T11:46:11.000Z,50.88
2022-08-26T11:47:11.000Z,50.07
2022-08-26T11:48:11.000Z,50.24
2022-08-26T11:49:11.000Z,49.73
2022-08-26T11:50:11.000Z,47.00
2022-08-26T11:51:11.000Z,48.88
2022-08-26T11:52:11.000Z,47.31
2022-08-26T11:53:11.000Z,49.19
2022-08-26T11:54:11.000Z,49.32
2022-08-26T11:55:11.000Z,49.53
2022-08-26T11:56:11.000Z,50.22
2022-08-26T11:57:11.000Z,50.05
2022-08-26T11:58:11.000Z,50.95
2022-08-26T11:59:11.000Z,51.07
2022-08-26T12:00:11.000Z,51.37
2022-08-26T12:01:11.000Z,51.78
2022-08-26T12:02:11.000Z,52.40
2022-08-26T12:03:11.000Z,52.81
2022-08-26T12:04:11.000Z,51.44
2022-08-26T12:05:11.000Z,51.66
2022-08-26T12:06:11.000Z,53.85
2022-08-26T12:07:11.000Z,53.16
2022-08-26T12:08:11.000Z,54.07
2022-08-26T12:09:11.000Z,53.58
2022-08-26T12:10:11.000Z,53.67
2022-08-26T12:11:11.000Z,55.37
2022-08-26T12:12:11.000Z,56.51
2022-08-26T12:13:11.000Z,57.78
2022-08-26T12:14:11.000Z,57.62
2022-08-26T12:15:11.000Z,58.01
2022-08-26T12:16:11.000Z,56.95
2022-08-26T12:24:29.000Z,73.98
2022-08-26T12:24:29.000Z,73.89
2022-08-26T12:25:29.000Z,77.44
2022-08-26T12:26:29.000Z,80.33
2022-08-26T12:27:29.000Z,82.79
2022-08-26T12:27:29.000Z,82.79
2022-08-26T12:28:29.000Z,84.63
2022-08-26T12:28:29.000Z,84.63
2022-08-26T12:29:29.000Z,86.40
2022-08-26T12:29:29.000Z,86.40
2022-08-26T12:30:29.000Z,88.93